createdAt,value
2023-03-26T00:02:16.325Z,3.72
2023-03-26T00:04:46.607Z,4.43
2023-03-26T00:07:16.067Z,4.95
2023-03-26T00:09:45.459Z,4.10
2023-03-26T00:12:15.109Z,4.75
2023-03-26T00:14:44.923Z,3.90
2023-03-26T00:17:15.619Z,4.50
2023-03-26T00:19:45.453Z,4.32
2023-03-26T00:22:17.054Z,5.03
2023-03-26T00:24:49.385Z,4.88
2023-03-26T00:27:18.609Z,5.60
2023-03-26T00:29:49.145Z,4.35
2023-03-26T00:32:19.713Z,4.57
2023-03-26T00:34:52.028Z,5.35
2023-03-26T00:37:26.428Z,4.25
2023-03-26T00:40:01.122Z,3.97
2023-03-26T00:42:31.948Z,3.55
2023-03-26T00:45:01.945Z,3.55
2023-03-26T00:47:32.441Z,4.10
2023-03-26T00:50:01.669Z,6.47
2023-03-26T00:52:31.728Z,5.78
2023-03-26T00:55:00.996Z,4.80
2023-03-26T00:57:36.011Z,5.78
2023-03-26T01:00:16.992Z,4.53
2023-03-26T01:02:48.034Z,5.05
2023-03-26T01:05:42.750Z,5.03
2023-03-26T01:08:19.436Z,5.40
2023-03-26T01:10:50.995Z,5.60
2023-03-26T01:13:20.994Z,7.07
2023-03-26T01:15:53.135Z,5.03
2023-03-26T01:18:26.557Z,6.20
2023-03-26T01:21:05.158Z,5.32
2023-03-26T01:23:38.487Z,5.20
2023-03-26T01:26:11.271Z,5.93
2023-03-26T01:28:42.811Z,4.63
2023-03-26T01:31:14.987Z,4.47
2023-03-26T01:33:48.021Z,5.30
2023-03-26T01:36:19.243Z,5.95
2023-03-26T01:38:52.043Z,4.38
2023-03-26T01:41:25.810Z,3.80
2023-03-26T01:43:59.916Z,3.50
2023-03-26T01:46:29.259Z,3.55
2023-03-26T01:48:58.275Z,4.63
2023-03-26T01:51:29.021Z,4.18
2023-03-26T01:53:59.365Z,3.55
2023-03-26T01:56:33.682Z,4.25
2023-03-26T01:59:07.336Z,3.10
2023-03-26T02:01:45.140Z,4.97
2023-03-26T02:04:20.130Z,3.10
2023-03-26T02:06:53.195Z,3.97
2023-03-26T02:09:24.849Z,3.83
2023-03-26T02:11:55.576Z,3.00
2023-03-26T02:14:24.833Z,4.03
2023-03-26T02:16:54.081Z,3.15
2023-03-26T02:19:24.672Z,2.75
2023-03-26T02:21:59.787Z,3.65
2023-03-26T02:24:30.586Z,2.55
2023-03-26T02:27:02.426Z,2.83
2023-03-26T02:29:32.256Z,2.85
2023-03-26T02:32:02.304Z,2.55
2023-03-26T02:34:31.769Z,3.30
2023-03-26T02:37:01.226Z,3.65
2023-03-26T02:39:30.880Z,2.40
2023-03-26T02:42:07.161Z,1.98
2023-03-26T02:44:42.742Z,2.45
2023-03-26T02:47:21.624Z,2.58
2023-03-26T02:50:10.092Z,3.42
2023-03-26T02:53:14.570Z,2.70
2023-03-26T02:55:47.654Z,3.20
2023-03-26T02:58:18.678Z,1.80
2023-03-26T03:00:50.872Z,2.33
2023-03-26T03:03:30.072Z,2.58
2023-03-26T03:06:19.486Z,2.20
2023-03-26T03:08:58.338Z,2.78
2023-03-26T03:11:53.750Z,2.92
2023-03-26T03:14:24.224Z,2.92
2023-03-26T03:16:53.836Z,2.08
2023-03-26T03:19:24.388Z,3.53
2023-03-26T03:21:53.380Z,1.92
2023-03-26T03:24:23.541Z,2.10
2023-03-26T03:26:56.861Z,2.03
2023-03-26T03:29:36.023Z,2.40
2023-03-26T03:32:25.336Z,1.92
2023-03-26T03:34:58.164Z,2.47
2023-03-26T03:37:27.519Z,1.80
2023-03-26T03:39:58.292Z,2.00
2023-03-26T03:42:29.864Z,1.90
2023-03-26T03:45:04.340Z,1.20
2023-03-26T03:47:50.340Z,1.58
2023-03-26T03:50:25.881Z,1.10
2023-03-26T03:53:16.218Z,1.70
2023-03-26T03:55:53.236Z,0.90
2023-03-26T03:58:24.881Z,0.90
2023-03-26T04:03:51.757Z,0.75
2023-03-26T04:06:25.301Z,0.90
2023-03-26T04:08:56.377Z,0.80
2023-03-26T04:11:25.574Z,1.20
2023-03-26T04:14:13.225Z,0.70
2023-03-26T04:16:53.320Z,0.73
2023-03-26T04:19:24.804Z,1.08
2023-03-26T04:21:54.408Z,0.90
2023-03-26T04:24:24.653Z,0.82
2023-03-26T04:27:27.729Z,0.57
2023-03-26T04:30:06.580Z,0.50
2023-03-26T04:32:38.689Z,1.02
2023-03-26T04:35:13.728Z,0.50
2023-03-26T04:37:46.121Z,0.50
2023-03-26T04:40:20.723Z,0.70
2023-03-26T04:43:03.311Z,0.55
2023-03-26T04:46:02.988Z,0.40
2023-03-26T04:48:34.762Z,0.40
2023-03-26T04:51:07.177Z,0.45
2023-03-26T04:53:37.154Z,0.57
2023-03-26T04:56:30.823Z,0.80
2023-03-26T04:59:14.932Z,0.50
2023-03-26T05:01:46.796Z,0.40
2023-03-26T05:04:18.723Z,1.42
2023-03-26T05:06:49.405Z,0.40
2023-03-26T05:09:25.473Z,0.50
2023-03-26T05:12:13.061Z,0.80
2023-03-26T05:14:59.546Z,0.55
2023-03-26T05:20:34.324Z,0.47
2023-03-26T05:23:07.402Z,0.35
2023-03-26T05:25:39.903Z,0.85
2023-03-26T05:28:19.324Z,0.50
2023-03-26T05:30:55.506Z,0.60
2023-03-26T05:33:26.689Z,0.40
2023-03-26T05:36:03.442Z,0.68
2023-03-26T05:38:35.689Z,0.70
2023-03-26T05:41:08.043Z,0.43
2023-03-26T05:43:39.878Z,0.47
2023-03-26T05:46:23.303Z,0.40
2023-03-26T05:48:53.985Z,0.50
2023-03-26T05:51:24.878Z,0.80
2023-03-26T05:54:15.647Z,1.52
2023-03-26T05:57:10.964Z,0.43
2023-03-26T05:59:58.787Z,0.60
2023-03-26T06:02:46.817Z,0.70
2023-03-26T06:05:37.569Z,0.43
2023-03-26T06:08:19.503Z,0.40
2023-03-26T06:10:59.563Z,0.57
2023-03-26T06:13:30.455Z,0.60
2023-03-26T06:15:59.799Z,0.60
2023-03-26T06:18:40.677Z,0.60
2023-03-26T06:21:24.989Z,0.50
2023-03-26T06:23:58.901Z,0.75
2023-03-26T06:26:41.208Z,0.60
2023-03-26T06:29:23.719Z,0.43
2023-03-26T06:32:09.371Z,1.05
2023-03-26T06:35:03.114Z,0.63
2023-03-26T06:37:32.314Z,0.63
2023-03-26T06:40:03.819Z,0.80
2023-03-26T06:43:09.022Z,1.58
2023-03-26T06:45:58.068Z,0.50
2023-03-26T06:48:45.432Z,0.50
2023-03-26T06:51:14.463Z,0.60
2023-03-26T06:54:22.191Z,0.50
2023-03-26T06:56:51.394Z,0.50
2023-03-26T06:59:50.565Z,0.40
2023-03-26T07:02:38.310Z,0.55
2023-03-26T07:05:27.714Z,0.50
2023-03-26T07:08:32.217Z,0.30
2023-03-26T07:11:36.499Z,0.50
2023-03-26T07:14:27.898Z,0.50
2023-03-26T07:17:18.969Z,0.60
2023-03-26T07:19:58.276Z,0.70
2023-03-26T07:22:29.272Z,0.63
2023-03-26T07:25:19.755Z,0.40
2023-03-26T07:28:14.944Z,0.88
2023-03-26T07:31:02.461Z,0.45
2023-03-26T07:33:47.963Z,0.60
2023-03-26T07:36:39.445Z,0.77
2023-03-26T07:39:38.262Z,0.57
2023-03-26T07:42:39.493Z,0.60
2023-03-26T07:45:47.618Z,0.45
2023-03-26T07:48:40.988Z,0.30
2023-03-26T07:51:18.697Z,0.40
2023-03-26T07:54:07.570Z,0.30
2023-03-26T07:57:02.247Z,0.30
2023-03-26T07:59:52.695Z,0.35
2023-03-26T08:02:44.909Z,0.32
2023-03-26T08:05:33.463Z,0.30
2023-03-26T08:08:28.499Z,0.25
2023-03-26T08:11:24.031Z,0.20
2023-03-26T08:14:05.083Z,0.40
2023-03-26T08:16:38.670Z,0.57
2023-03-26T08:19:12.789Z,0.68
2023-03-26T08:21:43.926Z,0.40
2023-03-26T08:24:19.831Z,1.23
2023-03-26T08:26:55.175Z,0.65
2023-03-26T08:29:28.010Z,0.77
2023-03-26T08:31:57.448Z,1.58
2023-03-26T08:34:26.546Z,0.82
2023-03-26T08:36:55.745Z,1.48
2023-03-26T08:39:26.338Z,1.17
2023-03-26T08:42:15.443Z,0.90
2023-03-26T08:45:05.387Z,0.80
2023-03-26T08:48:08.456Z,0.90
2023-03-26T08:50:52.467Z,0.80
2023-03-26T08:53:38.534Z,0.70
2023-03-26T08:56:22.617Z,0.70
2023-03-26T08:59:14.218Z,0.50
2023-03-26T09:01:54.394Z,0.40
2023-03-26T09:04:33.564Z,0.50
2023-03-26T09:07:23.972Z,0.50
2023-03-26T09:10:19.773Z,0.50
2023-03-26T09:13:18.590Z,0.40
2023-03-26T09:16:06.532Z,0.60
2023-03-26T09:18:54.716Z,0.47
2023-03-26T09:21:33.314Z,1.08
2023-03-26T09:24:18.581Z,0.80
2023-03-26T09:26:51.054Z,0.40
2023-03-26T09:29:47.259Z,0.50
2023-03-26T09:32:31.383Z,0.60
2023-03-26T09:35:13.619Z,0.52
2023-03-26T09:37:56.801Z,0.60
2023-03-26T09:40:37.046Z,0.50
2023-03-26T09:43:30.507Z,0.60
2023-03-26T09:46:05.197Z,0.57
2023-03-26T09:48:47.461Z,0.60
2023-03-26T09:53:53.681Z,0.50
2023-03-26T09:56:28.100Z,0.60
2023-03-26T09:59:11.399Z,0.40
2023-03-26T10:01:44.870Z,0.50
2023-03-26T10:04:40.473Z,0.50
2023-03-26T10:07:15.611Z,0.40
2023-03-26T10:09:55.412Z,0.63
2023-03-26T10:12:28.870Z,0.47
2023-03-26T10:15:03.186Z,0.40
2023-03-26T10:17:38.776Z,0.80
2023-03-26T10:20:26.028Z,1.15
2023-03-26T10:23:03.017Z,0.65
2023-03-26T10:25:53.045Z,0.70
2023-03-26T10:28:32.774Z,0.83
2023-03-26T10:31:19.708Z,0.50
2023-03-26T10:33:54.284Z,1.00
2023-03-26T10:36:29.789Z,0.80
2023-03-26T10:39:36.183Z,0.95
2023-03-26T10:42:15.406Z,0.80
2023-03-26T10:45:03.673Z,0.70
2023-03-26T10:47:57.951Z,0.70
2023-03-26T10:51:03.490Z,0.70
2023-03-26T10:53:34.044Z,0.90
2023-03-26T10:56:13.579Z,0.80
2023-03-26T10:58:48.480Z,0.60
2023-03-26T11:01:24.570Z,1.20
2023-03-26T11:03:55.271Z,0.60
2023-03-26T11:06:31.917Z,0.80
2023-03-26T11:09:05.928Z,0.70
2023-03-26T11:11:39.773Z,0.63
2023-03-26T11:14:24.437Z,1.25
2023-03-26T11:17:03.126Z,0.60
2023-03-26T11:19:34.992Z,0.70
2023-03-26T11:22:11.259Z,0.60
2023-03-26T11:24:54.495Z,0.40
2023-03-26T11:27:27.573Z,0.73
2023-03-26T11:30:04.946Z,0.55
2023-03-26T11:32:41.336Z,0.52
2023-03-26T11:35:17.015Z,0.40
2023-03-26T11:38:07.575Z,0.60
2023-03-26T11:40:38.707Z,0.40
2023-03-26T11:43:09.977Z,0.68
2023-03-26T11:45:42.907Z,0.50
2023-03-26T11:48:15.660Z,0.50
2023-03-26T11:50:47.863Z,0.47
2023-03-26T11:53:19.242Z,0.63
2023-03-26T11:55:49.865Z,0.35
2023-03-26T11:58:29.847Z,0.75
2023-03-26T12:01:00.693Z,0.40
2023-03-26T12:03:30.688Z,0.43
2023-03-26T12:06:01.128Z,0.45
2023-03-26T12:08:34.837Z,0.40
2023-03-26T12:11:12.520Z,0.50
2023-03-26T12:13:43.179Z,0.43
2023-03-26T12:16:15.964Z,0.50
2023-03-26T12:18:47.555Z,0.30
2023-03-26T12:21:17.719Z,0.50
2023-03-26T12:23:56.378Z,0.40
2023-03-26T12:26:34.076Z,0.30
2023-03-26T12:29:08.340Z,0.40
2023-03-26T12:31:49.867Z,0.52
2023-03-26T12:34:21.860Z,0.30
2023-03-26T12:40:10.699Z,0.20
2023-03-26T12:44:45.934Z,0.32
2023-03-26T12:45:25.418Z,1.00
2023-03-26T12:48:03.519Z,0.88
2023-03-26T12:50:39.748Z,0.70
2023-03-26T12:53:18.089Z,0.57
2023-03-26T12:55:51.949Z,0.95
2023-03-26T12:58:29.777Z,1.10
2023-03-26T13:01:03.179Z,1.33
2023-03-26T13:03:43.593Z,0.80
2023-03-26T13:06:22.993Z,1.25
2023-03-26T13:09:03.534Z,1.33
2023-03-26T13:11:35.765Z,1.90
2023-03-26T13:14:16.069Z,2.00
2023-03-26T13:16:50.322Z,2.22
2023-03-26T13:19:25.788Z,1.70
2023-03-26T13:22:01.966Z,1.40
2023-03-26T13:24:37.071Z,3.88
2023-03-26T13:27:17.405Z,2.22
2023-03-26T13:29:56.451Z,2.00
2023-03-26T13:32:30.430Z,1.88
2023-03-26T13:35:08.677Z,3.55
2023-03-26T13:37:42.099Z,2.20
2023-03-26T13:40:22.200Z,2.20
2023-03-26T13:42:57.215Z,2.15
2023-03-26T13:45:45.041Z,3.67
2023-03-26T13:48:19.739Z,2.05
2023-03-26T13:50:57.389Z,1.95
2023-03-26T13:53:32.760Z,2.22
2023-03-26T13:56:05.645Z,2.08
2023-03-26T13:58:38.264Z,1.85
2023-03-26T14:01:10.505Z,2.42
2023-03-26T14:06:28.422Z,1.80
2023-03-26T14:09:02.897Z,2.65
2023-03-26T14:11:38.308Z,1.65
2023-03-26T14:14:10.289Z,2.17
2023-03-26T14:19:27.464Z,2.25
2023-03-26T14:22:06.002Z,2.75
2023-03-26T14:24:54.494Z,2.42
2023-03-26T14:27:38.162Z,2.40
2023-03-26T14:30:30.085Z,4.32
2023-03-26T14:33:04.998Z,2.97
2023-03-26T14:35:37.848Z,2.05
2023-03-26T14:38:34.032Z,2.47
2023-03-26T14:41:12.059Z,2.47
2023-03-26T14:43:55.908Z,2.13
2023-03-26T14:46:38.878Z,1.92
2023-03-26T14:49:24.986Z,2.20
2023-03-26T14:52:11.844Z,1.83
2023-03-26T14:54:44.030Z,1.70
2023-03-26T14:57:40.043Z,2.70
2023-03-26T15:00:27.150Z,1.98
2023-03-26T15:03:23.135Z,2.17
2023-03-26T15:06:10.930Z,2.95
2023-03-26T15:08:58.967Z,2.22
2023-03-26T15:11:32.974Z,2.10
2023-03-26T15:14:34.277Z,3.17
2023-03-26T15:17:19.759Z,2.00
2023-03-26T15:20:06.736Z,2.38
2023-03-26T15:22:50.895Z,2.65
2023-03-26T15:25:38.627Z,2.08
2023-03-26T15:28:26.529Z,2.05
2023-03-26T15:31:14.156Z,2.03
2023-03-26T15:33:58.736Z,1.83
2023-03-26T15:36:51.050Z,1.13
2023-03-26T15:39:33.043Z,1.75
2023-03-26T15:42:07.341Z,1.75
2023-03-26T15:45:03.136Z,1.90
2023-03-26T15:47:50.473Z,1.80
2023-03-26T15:50:27.352Z,1.92
2023-03-26T15:53:09.929Z,1.60
2023-03-26T15:55:46.210Z,1.50
2023-03-26T15:58:20.327Z,1.70
2023-03-26T16:00:57.063Z,1.40
2023-03-26T16:03:34.316Z,1.63
2023-03-26T16:06:19.878Z,1.35
2023-03-26T16:08:53.768Z,1.42
2023-03-26T16:11:40.765Z,1.55
2023-03-26T16:14:20.471Z,1.65
2023-03-26T16:16:56.889Z,1.90
2023-03-26T16:19:50.305Z,1.05
2023-03-26T16:22:35.421Z,2.38
2023-03-26T16:25:38.813Z,1.20
2023-03-26T16:28:29.543Z,1.55
2023-03-26T16:31:38.021Z,1.05
2023-03-26T16:34:29.488Z,0.75
2023-03-26T16:37:01.500Z,1.25
2023-03-26T16:39:41.107Z,1.30
2023-03-26T16:42:27.189Z,1.95
2023-03-26T16:45:03.615Z,1.83
2023-03-26T16:47:37.689Z,1.95
2023-03-26T16:50:15.909Z,1.10
2023-03-26T16:52:52.162Z,1.17
2023-03-26T16:55:24.860Z,1.10
2023-03-26T16:58:04.782Z,1.45
2023-03-26T17:00:43.226Z,1.70
2023-03-26T17:03:21.722Z,1.02
2023-03-26T17:06:04.037Z,0.85
2023-03-26T17:08:40.801Z,1.48
2023-03-26T17:11:21.252Z,1.10
2023-03-26T17:14:01.295Z,1.77
2023-03-26T17:16:34.566Z,1.02
2023-03-26T17:19:20.794Z,1.55
2023-03-26T17:22:05.984Z,1.35
2023-03-26T17:24:46.028Z,1.00
2023-03-26T17:28:03.494Z,1.10
2023-03-26T17:30:54.048Z,1.25
2023-03-26T17:33:32.862Z,1.00
2023-03-26T17:36:22.011Z,1.30
2023-03-26T17:39:19.874Z,1.20
2023-03-26T17:42:02.343Z,1.15
2023-03-26T17:45:08.398Z,1.17
2023-03-26T17:47:58.191Z,1.00
2023-03-26T17:50:40.367Z,0.77
2023-03-26T17:53:18.987Z,1.13
2023-03-26T17:55:51.152Z,1.35
2023-03-26T17:58:29.944Z,0.82
2023-03-26T18:01:06.163Z,0.63
2023-03-26T18:03:37.077Z,1.10
2023-03-26T18:06:08.715Z,0.70
2023-03-26T18:09:13.231Z,0.80
2023-03-26T18:11:52.325Z,0.90
2023-03-26T18:14:33.700Z,0.55
2023-03-26T18:17:03.486Z,0.90
2023-03-26T18:19:47.589Z,1.40
2023-03-26T18:22:19.650Z,0.60
2023-03-26T18:24:48.951Z,1.60
2023-03-26T18:27:20.099Z,1.20
2023-03-26T18:30:02.813Z,1.13
2023-03-26T18:32:33.874Z,0.60
2023-03-26T18:35:04.466Z,1.02
2023-03-26T18:37:34.509Z,0.80
2023-03-26T18:40:11.282Z,0.75
2023-03-26T18:42:41.503Z,1.65
2023-03-26T18:45:27.343Z,1.00
2023-03-26T18:47:58.116Z,1.05
2023-03-26T18:50:28.795Z,1.13
2023-03-26T18:52:59.057Z,1.15
2023-03-26T18:55:29.082Z,1.10
2023-03-26T18:57:58.207Z,1.52
2023-03-26T19:00:30.541Z,0.95
2023-03-26T19:03:04.449Z,0.88
2023-03-26T19:05:34.915Z,1.05
2023-03-26T19:08:05.415Z,3.03
2023-03-26T19:10:35.025Z,1.00
2023-03-26T19:13:05.432Z,1.27
2023-03-26T19:15:38.394Z,1.42
2023-03-26T19:20:43.513Z,0.90
2023-03-26T19:23:17.756Z,0.98
2023-03-26T19:25:48.705Z,0.93
2023-03-26T19:28:20.353Z,1.00
2023-03-26T19:30:54.880Z,0.82
2023-03-26T19:33:27.488Z,0.52
2023-03-26T19:36:03.970Z,0.93
2023-03-26T19:38:40.190Z,1.25
2023-03-26T19:41:20.394Z,0.80
2023-03-26T19:43:50.553Z,0.88
2023-03-26T19:46:23.631Z,1.00
2023-03-26T19:48:54.271Z,0.73
2023-03-26T19:51:25.076Z,0.85
2023-03-26T19:53:55.509Z,1.20
2023-03-26T19:56:25.632Z,1.00
2023-03-26T19:58:56.086Z,0.80
2023-03-26T20:01:27.725Z,0.80
2023-03-26T20:03:59.085Z,0.95
2023-03-26T20:06:42.656Z,1.77
2023-03-26T20:09:13.663Z,1.17
2023-03-26T20:11:45.906Z,1.17
2023-03-26T20:14:16.923Z,1.50
2023-03-26T20:16:48.361Z,1.33
2023-03-26T20:19:17.985Z,0.98
2023-03-26T20:21:47.273Z,0.98
2023-03-26T20:24:17.753Z,0.77
2023-03-26T20:26:47.342Z,2.20
2023-03-26T20:29:20.540Z,0.90
2023-03-26T20:31:51.313Z,0.90
2023-03-26T20:34:22.473Z,1.08
2023-03-26T20:36:55.329Z,0.68
2023-03-26T20:39:26.435Z,1.25
2023-03-26T20:41:56.403Z,1.00
2023-03-26T20:44:26.858Z,1.10
2023-03-26T20:46:59.646Z,1.10
2023-03-26T20:49:32.481Z,0.90
2023-03-26T20:52:02.658Z,0.98
2023-03-26T20:54:31.881Z,0.70
2023-03-26T20:57:02.436Z,1.30
2023-03-26T20:59:31.732Z,0.88
2023-03-26T21:02:02.135Z,1.02
2023-03-26T21:04:32.135Z,1.10
2023-03-26T21:07:11.178Z,0.90
2023-03-26T21:09:46.723Z,1.30
2023-03-26T21:12:19.069Z,0.98
2023-03-26T21:14:48.598Z,0.93
2023-03-26T21:17:20.716Z,0.73
2023-03-26T21:19:50.210Z,1.90
2023-03-26T21:22:25.821Z,0.70
2023-03-26T21:25:01.795Z,1.40
2023-03-26T21:27:33.818Z,0.73
2023-03-26T21:30:03.227Z,1.23
2023-03-26T21:32:34.289Z,1.20
2023-03-26T21:35:05.153Z,1.02
2023-03-26T21:37:34.654Z,0.80
2023-03-26T21:40:14.075Z,0.93
2023-03-26T21:42:43.340Z,1.02
2023-03-26T21:45:12.955Z,0.85
2023-03-26T21:47:44.001Z,1.25
2023-03-26T21:50:14.253Z,0.80
2023-03-26T21:52:48.397Z,1.42
2023-03-26T21:55:18.359Z,1.20
2023-03-26T21:58:05.317Z,0.88
2023-03-26T22:00:43.408Z,1.30
2023-03-26T22:03:21.212Z,1.02
2023-03-26T22:05:54.299Z,0.68
2023-03-26T22:08:25.937Z,1.02
2023-03-26T22:10:55.254Z,1.35
2023-03-26T22:13:24.754Z,1.30
2023-03-26T22:15:53.908Z,0.85
2023-03-26T22:18:26.101Z,0.77
2023-03-26T22:20:55.987Z,1.38
2023-03-26T22:23:26.182Z,1.08
2023-03-26T22:25:56.064Z,0.63
2023-03-26T22:28:25.233Z,0.90
2023-03-26T22:30:54.571Z,0.85
2023-03-26T22:33:25.376Z,1.40
2023-03-26T22:35:55.611Z,0.90
2023-03-26T22:38:27.267Z,1.10
2023-03-26T22:40:57.661Z,2.22
2023-03-26T22:43:27.299Z,1.50
2023-03-26T22:45:56.301Z,1.75
2023-03-26T22:48:26.884Z,1.88
2023-03-26T22:50:59.488Z,1.40
2023-03-26T22:53:28.924Z,1.20
2023-03-26T22:55:58.097Z,1.13
2023-03-26T22:58:28.294Z,1.02
2023-03-26T23:01:03.199Z,1.85
2023-03-26T23:03:35.165Z,0.90
2023-03-26T23:06:08.004Z,1.08
2023-03-26T23:08:38.408Z,0.98
2023-03-26T23:11:09.838Z,0.70
2023-03-26T23:13:39.214Z,0.88
2023-03-26T23:16:10.370Z,1.10
2023-03-26T23:18:41.377Z,1.60
2023-03-26T23:21:15.439Z,1.40
2023-03-26T23:23:44.610Z,0.80
2023-03-26T23:26:13.617Z,0.73
2023-03-26T23:28:43.211Z,0.63
2023-03-26T23:31:13.514Z,1.02
2023-03-26T23:33:46.598Z,0.73
2023-03-26T23:36:17.761Z,1.13
2023-03-26T23:38:47.731Z,0.88
2023-03-26T23:41:17.111Z,0.60
2023-03-26T23:43:53.945Z,1.00
2023-03-26T23:46:25.215Z,1.48
2023-03-26T23:48:59.625Z,1.00
2023-03-26T23:51:30.191Z,0.70
2023-03-26T23:53:59.889Z,0.70
2023-03-26T23:56:30.051Z,1.23
2023-03-26T23:59:02.594Z,0.77
